Data for 08/17/2008

Time Sea-Level Adjusted Pressure Absolute Pressure Temperature Relative Humidity Dew Point   
(mb) (inHg) (mb) (inHg) (C) (F) (%) (C) (F)
00:05 1019 30.09 849 25.07 17.5 63.5 37 2.7 36.9
00:10 1020 30.12 849 25.07 17.4 63.3 39 3.3 38
00:15 1020 30.12 849 25.07 16.9 62.4 42 3.9 39
00:20 1020 30.12 849 25.07 16.7 62 38 2.5 36.5
00:25 1020 30.12 849 25.07 16.9 62.4 37 2.3 36.2
00:30 1020 30.12 849 25.07 17.1 62.7 38 2.7 36.9
00:35 1020 30.12 849 25.07 16.8 62.3 39 3 37.4
00:40 1020 30.12 849 25.07 16.6 61.8 40 2.9 37.3
00:45 1020 30.12 849 25.07 16.3 61.4 40 2.8 37
00:50 1020 30.12 849 25.07 16 60.8 41 2.8 37
00:55 1020 30.12 849 25.07 16 60.7 41 2.8 37.1
01:00 1020 30.12 849 25.07 16 60.8 38 1.9 35.4
01:05 1020 30.12 849 25.07 16.5 61.8 40 3.1 37.5
01:10 1020 30.12 849 25.07 16.4 61.5 39 2.3 36.2
01:15 1020 30.12 849 25.07 16.7 62 41 3.4 38.1
01:20 1020 30.12 849 25.07 15.9 60.6 42 3.1 37.5
01:25 1020 30.12 849 25.07 16.1 60.9 37 1.5 34.7
01:30 1020 30.12 849 25.07 16.8 62.2 38 2.6 36.6
01:35 1020 30.12 849 25.07 16.4 61.6 39 2.7 36.9
01:40 1020 30.12 849 25.07 15.6 60.1 47 4.5 40
01:45 1020 30.12 849 25.07 14.7 58.5 48 4 39.3
01:50 1020 30.12 849 25.07 14.1 57.4 50 3.9 39
01:55 1020 30.12 849 25.07 14.2 57.5 46 2.7 36.8
02:00 1020 30.12 849 25.07 14.7 58.4 45 3.1 37.6
02:05 1020 30.12 849 25.07 14.6 58.3 46 3.1 37.6
02:10 1020 30.12 849 25.07 15.2 59.3 38 1 33.9
02:15 1020 30.12 849 25.07 16.5 61.6 37 2 35.6
02:20 1020 30.12 849 25.07 16 60.9 37 1.5 34.7
02:25 1020 30.12 849 25.07 16 60.9 41 2.8 37.1
02:30 1020 30.12 849 25.07 15.6 60.1 39 1.7 35.1
02:35 1020 30.12 849 25.07 16.1 61 37 1.5 34.8
02:40 1020 30.12 849 25.07 16.1 61.1 38 2 35.7
02:45 1020 30.12 849 25.07 15.5 59.8 42 2.6 36.7
02:50 1020 30.12 849 25.07 15.1 59.1 44 2.9 37.2
02:55 1020 30.12 849 25.07 14.6 58.4 44 2.7 36.9
03:00 1020 30.12 849 25.07 14.6 58.2 44 2.5 36.5
03:05 1020 30.12 849 25.07 14.6 58.3 43 2.4 36.3
03:10 1020 30.12 849 25.07 14.9 58.8 41 2 35.5
03:15 1020 30.12 849 25.07 15.6 60 39 1.6 34.9
03:20 1020 30.12 849 25.07 15.8 60.4 40 2.5 36.4
03:25 1020 30.12 849 25.07 15.1 59.2 44 3.1 37.5
03:30 1020 30.12 849 25.07 14.5 58 45 2.9 37.2
03:35 1020 30.12 849 25.07 14.2 57.6 46 2.9 37.2
03:40 1020 30.12 849 25.07 13.8 56.8 48 3 37.4
03:45 1020 30.12 849 25.07 13.5 56.4 48 2.8 37.1
03:50 1020 30.12 849 25.07 13.8 56.8 45 2.1 35.7
03:55 1020 30.12 849 25.07 14.3 57.7 43 2 35.7
04:00 1020 30.12 849 25.07 14.5 58.1 43 2.1 35.8
04:05 1020 30.12 849 25.07 14.3 57.7 43 2 35.5
04:10 1020 30.12 849 25.07 14.7 58.5 41 1.9 35.3
04:15 1020 30.12 849 25.07 14.8 58.7 42 2 35.6
04:20 1020 30.12 849 25.07 14.9 58.8 40 1.5 34.6
04:25 1020 30.12 849 25.07 14.7 58.4 45 2.9 37.2
04:30 1020 30.12 849 25.07 14.2 57.6 44 2.1 35.8
04:35 1020 30.12 849 25.07 14.4 57.9 42 1.7 35.1
04:40 1020 30.12 849 25.07 14.7 58.5 42 2 35.5
04:45 1020 30.12 849 25.07 14.8 58.6 41 1.7 35
04:50 1020 30.12 849 25.07 15.1 59.1 41 2 35.5
04:55 1020 30.12 849 25.07 15.1 59.2 39 1.3 34.4
05:00 1020 30.12 849 25.07 15.4 59.8 40 1.8 35.3
05:05 1020 30.12 849 25.07 15 59.1 41 2.1 35.7
05:10 1020 30.12 849 25.07 14.4 58 43 2.2 35.9
05:15 1020 30.12 849 25.07 14.1 57.4 45 2.3 36.2
05:20 1020 30.12 849 25.07 13.5 56.3 47 2.5 36.5
05:25 1020 30.12 849 25.07 13.2 55.8 46 2 35.7
05:30 1020 30.12 849 25.07 13.8 56.9 44 2 35.6
05:35 1020 30.12 849 25.07 14 57.1 44 2 35.6
05:40 1020 30.12 849 25.07 14.2 57.6 43 2 35.6
05:45 1020 30.12 849 25.07 14.3 57.7 45 2.7 36.8
05:50 1020 30.12 849 25.07 13.8 56.8 44 1.8 35.3
05:55 1020 30.12 850 25.1 14.3 57.7 41 1.3 34.4
06:00 1020 30.12 850 25.1 14.5 58.1 44 2.5 36.5
06:05 1020 30.12 850 25.1 13.8 56.9 45 2.3 36.1
06:10 1020 30.12 850 25.1 13.9 56.9 45 2.2 36
06:15 1021 30.15 850 25.1 13.9 57.1 43 1.6 34.9
06:20 1021 30.15 850 25.1 14.1 57.4 44 2.2 35.9
06:25 1021 30.15 850 25.1 13.6 56.4 45 1.9 35.4
06:30 1021 30.15 850 25.1 13.7 56.6 44 1.7 35.1
06:35 1021 30.15 850 25.1 14.1 57.3 44 2 35.7
06:40 1021 30.15 850 25.1 13.3 56 48 2.7 36.8
06:45 1021 30.15 850 25.1 13 55.4 48 2.2 36
06:50 1021 30.15 850 25.1 13.3 55.9 48 2.5 36.6
06:55 1021 30.15 850 25.1 13.2 55.7 50 3.2 37.7
07:00 1021 30.15 850 25.1 12.8 55 49 2.6 36.6
07:05 1021 30.15 850 25.1 13 55.3 50 2.7 36.9
07:10 1021 30.15 850 25.1 13.2 55.8 46 1.9 35.5
07:15 1021 30.15 850 25.1 13.3 55.9 52 3.6 38.4
07:20 1021 30.15 850 25.1 13.4 56.1 44 1.5 34.7
07:25 1021 30.15 850 25.1 14.1 57.4 45 2.5 36.4
07:30 1021 30.15 850 25.1 14 57.3 46 2.8 37.1
07:35 1021 30.15 850 25.1 14.2 57.5 46 2.7 36.9
07:40 1021 30.15 850 25.1 14.5 58.1 46 3 37.5
07:45 1021 30.15 850 25.1 14.5 58 42 1.8 35.3
07:50 1021 30.15 850 25.1 14.8 58.6 45 2.9 37.3
07:55 1021 30.15 850 25.1 14.9 58.8 47 3.7 38.7
08:00 1021 30.15 850 25.1 15 59.1 44 2.9 37.1
08:05 1021 30.15 850 25.1 15 59 46 3.5 38.2
08:10 1021 30.15 850 25.1 15.3 59.6 47 4.1 39.4
08:15 1021 30.15 850 25.1 15.7 60.3 45 3.9 39
08:20 1021 30.15 850 25.1 16.4 61.5 42 3.7 38.6
08:25 1021 30.15 850 25.1 16.7 62 43 4.3 39.7
08:30 1021 30.15 850 25.1 16.9 62.4 41 3.7 38.7
08:35 1021 30.15 851 25.13 17.1 62.8 42 4.2 39.5
08:40 1021 30.15 851 25.13 17.4 63.4 42 4.4 39.9
08:45 1021 30.15 851 25.13 17.8 64 39 3.8 38.8
08:50 1021 30.15 851 25.13 18 64.5 40 4.5 40.2
08:55 1021 30.15 851 25.13 18.4 65.2 38 4.1 39.4
09:00 1022 30.18 851 25.13 18.8 65.9 40 5.2 41.4
09:05 1022 30.18 851 25.13 19.2 66.5 43 6.3 43.3
09:10 1022 30.18 851 25.13 19.4 66.8 40 5.5 41.8
09:15 1022 30.18 851 25.13 19.9 67.9 36 4.5 40.1
09:20 1021 30.15 851 25.13 20.2 68.3 33 3.4 38
09:25 1021 30.15 851 25.13 20.8 69.4 29 2.5 36.5
09:30 1021 30.15 851 25.13 21.4 70.6 29 2.9 37.3
09:35 1021 30.15 851 25.13 21.5 70.8 29 2.9 37.2
09:40 1021 30.15 851 25.13 22.2 72 27 2.3 36.1
09:45 1021 30.15 851 25.13 22.2 71.9 28 3.2 37.8
09:50 1021 30.15 851 25.13 22.4 72.4 28 3.4 38.2
09:55 1021 30.15 851 25.13 22.8 73 28 3.8 38.8
10:00 1021 30.15 851 25.13 22.5 72.5 29 3.8 38.8
10:05 1021 30.15 851 25.13 22.9 73.3 27 3.1 37.7
10:10 1021 30.15 851 25.13 23.1 73.5 27 3.2 37.8
10:15 1021 30.15 851 25.13 23.3 73.9 26 3 37.3
10:20 1021 30.15 851 25.13 23.6 74.4 25 2.7 36.8
10:25 1021 30.15 851 25.13 23.6 74.4 26 3.1 37.5
10:30 1021 30.15 851 25.13 23.8 74.8 25 2.7 36.9
10:35 1021 30.15 850 25.1 24.2 75.5 25 3.1 37.5
10:40 1021 30.15 850 25.1 23.9 75.1 27 3.9 39
10:45 1021 30.15 850 25.1 23.4 74 26 2.7 36.9
10:50 1021 30.15 850 25.1 23.2 73.7 25 2.5 36.4
10:55 1021 30.15 850 25.1 24.1 75.3 24 2.7 36.9
11:00 1021 30.15 850 25.1 23.9 74.9 26 3.3 38
11:05 1021 30.15 850 25.1 24.1 75.4 27 3.9 39
11:10 1021 30.15 850 25.1 23.8 74.8 27 3.8 38.9
11:15 1021 30.15 850 25.1 23.4 74 26 3.2 37.7
11:20 1021 30.15 850 25.1 23.3 73.9 27 3.4 38.2
11:25 1021 30.15 850 25.1 23.7 74.7 26 3.3 38
11:30 1021 30.15 850 25.1 24.7 76.4 25 3.5 38.3
11:35 1021 30.15 850 25.1 24.8 76.7 26 4.1 39.4
11:40 1021 30.15 850 25.1 24.3 75.7 24 2.8 37
11:45 1021 30.15 850 25.1 25.2 77.4 24 3.3 37.9
11:50 1021 30.15 850 25.1 25.6 78.1 25 4.5 40.1
11:55 1021 30.15 850 25.1 25.5 77.9 25 4.4 39.8
12:00 1021 30.15 850 25.1 25.5 77.8 24 3.9 39
12:05 1021 30.15 850 25.1 25.8 78.4 24 4.1 39.4
12:10 1021 30.15 850 25.1 26.5 79.6 25 5 40.9
12:15 1021 30.15 850 25.1 26.4 79.5 23 4.1 39.3
12:20 1021 30.15 850 25.1 26.2 79.1 23 3.5 38.3
12:25 1021 30.15 850 25.1 26.7 80.1 21 3.2 37.7
12:30 1021 30.15 850 25.1 26.7 80 21 2.6 36.7
12:35 1021 30.15 850 25.1 27.2 81 22 3.8 38.8
12:40 1021 30.15 850 25.1 27.1 80.8 20 2.7 36.9
12:45 1020 30.12 850 25.1 27.2 81 22 3.7 38.6
12:50 1020 30.12 850 25.1 27.6 81.6 20 3.1 37.5
12:55 1020 30.12 850 25.1 27 80.7 21 3 37.4
13:00 1020 30.12 850 25.1 27.9 82.2 20 3.4 38.1
13:05 1020 30.12 850 25.1 28.2 82.8 20 3.5 38.3
13:10 1020 30.12 849 25.07 28.4 83 20 3.6 38.4
13:15 1020 30.12 849 25.07 28.6 83.4 20 3.7 38.7
13:20 1020 30.12 849 25.07 28.6 83.4 20 3.9 39
13:25 1020 30.12 849 25.07 27.7 81.8 21 3.4 38.2
13:30 1020 30.12 849 25.07 27.1 80.8 21 2.9 37.3
13:35 1020 30.12 849 25.07 27.5 81.5 21 3.6 38.5
13:40 1020 30.12 849 25.07 27.7 81.8 21 3.6 38.5
13:45 1020 30.12 849 25.07 28.8 83.8 18 2.7 36.9
13:50 1020 30.12 849 25.07 28.7 83.7 20 4 39.2
13:55 1020 30.12 849 25.07 28.5 83.3 19 2.8 37.1
14:00 1020 30.12 849 25.07 28.9 84.1 19 3 37.4
14:05 1020 30.12 849 25.07 29.1 84.3 18 2.5 36.4
14:10 1020 30.12 849 25.07 29.5 85.2 19 3.7 38.7
14:15 1019 30.09 849 25.07 28.9 84 21 4.5 40.1
14:20 1019 30.09 849 25.07 28.7 83.6 19 3.5 38.2
14:25 1019 30.09 849 25.07 29.6 85.3 19 3.6 38.5
14:30 1019 30.09 849 25.07 29.9 85.8 16 2.1 35.8
14:35 1019 30.09 849 25.07 30.1 86.2 16 1.5 34.8
14:40 1019 30.09 848 25.04 30.5 86.9 15 1.3 34.4
14:45 1019 30.09 848 25.04 30.1 86.2 15 1 33.7
14:50 1019 30.09 848 25.04 30.2 86.4 18 3.6 38.5
14:55 1019 30.09 848 25.04 29.6 85.3 14 0 32.1
15:00 1019 30.09 848 25.04 29.9 85.8 14 -0.5 31.2
15:05 1019 30.09 848 25.04 29.7 85.5 14 -0.1 31.8
15:10 1019 30.09 848 25.04 30.1 86.2 13 -0.7 30.7
15:15 1019 30.09 848 25.04 29.8 85.7 14 -0.4 31.3
15:20 1019 30.09 848 25.04 29.4 84.9 14 -0.2 31.6
15:25 1019 30.09 848 25.04 29.9 85.7 14 -0.2 31.6
15:30 1019 30.09 848 25.04 30 86 14 -0.5 31.1
15:35 1019 30.09 848 25.04 29.9 85.8 14 -0.5 31
15:40 1019 30.09 848 25.04 29.8 85.6 14 0.1 32.3
15:45 1019 30.09 848 25.04 29.5 85 13 -1.4 29.4
15:50 1019 30.09 848 25.04 29.3 84.7 13 -1.1 29.9
15:55 1019 30.09 848 25.04 29.6 85.4 13 -0.9 30.3
16:00 1019 30.09 848 25.04 29.6 85.2 14 -0.7 30.7
16:05 1019 30.09 848 25.04 29.5 85.1 14 -0.9 30.4
16:10 1019 30.09 848 25.04 29.8 85.6 14 -0.4 31.4
16:15 1019 30.09 848 25.04 30.3 86.6 13 -0.3 31.4
16:20 1019 30.09 848 25.04 30.1 86.1 13 -0.8 30.5
16:25 1019 30.09 848 25.04 29.9 85.8 13 -1.1 30.1
16:30 1019 30.09 848 25.04 29.9 85.7 13 -0.9 30.4
16:35 1019 30.09 848 25.04 29.8 85.7 14 -0.3 31.4
16:40 1018 30.06 848 25.04 30 86 13 -0.6 30.9
16:45 1018 30.06 848 25.04 29.8 85.7 14 -0.7 30.8
16:50 1018 30.06 848 25.04 29.8 85.7 13 -0.9 30.3
16:55 1018 30.06 848 25.04 30.1 86.2 13 -0.9 30.4
17:00 1018 30.06 848 25.04 30.2 86.4 13 -0.7 30.8
17:05 1018 30.06 848 25.04 30.2 86.4 14 0.2 32.4
17:10 1018 30.06 847 25.01 30.2 86.4 13 -0.5 31
17:15 1018 30.06 847 25.01 30.1 86.1 13 -1.4 29.5
17:20 1018 30.06 847 25.01 30 86 13 -0.7 30.7
17:25 1018 30.06 847 25.01 30.4 86.7 14 -0.1 31.8
17:30 1018 30.06 847 25.01 30 86 14 -0.3 31.4
17:35 1018 30.06 847 25.01 29.7 85.5 14 -0.6 31
17:40 1018 30.06 847 25.01 29.6 85.3 14 -0.6 31
17:45 1018 30.06 847 25.01 29.7 85.5 14 -0.3 31.5
17:50 1018 30.06 847 25.01 29.7 85.5 14 -0.3 31.4
17:55 1018 30.06 847 25.01 29.7 85.4 14 -0.1 31.9
18:00 1018 30.06 847 25.01 29.7 85.4 14 -0 32
18:05 1018 30.06 847 25.01 29.6 85.3 14 -0.3 31.4
18:10 1018 30.06 847 25.01 29.4 85 14 -0.1 31.7
18:15 1018 30.06 847 25.01 29.3 84.8 14 -0.2 31.6
18:20 1018 30.06 847 25.01 29.3 84.7 14 -0.5 31
18:25 1018 30.06 847 25.01 29.3 84.7 14 -0.6 31
18:30 1018 30.06 847 25.01 29.3 84.7 15 0 32.1
18:35 1018 30.06 847 25.01 29.1 84.4 15 -0.2 31.6
18:40 1018 30.06 847 25.01 29.1 84.4 14 -0.4 31.3
18:45 1018 30.06 847 25.01 29 84.2 15 0.1 32.2
18:50 1018 30.06 847 25.01 28.7 83.7 15 -0.5 31.1
18:55 1018 30.06 847 25.01 28.6 83.5 15 -0.1 31.8
19:00 1018 30.06 847 25.01 28.5 83.2 15 -0.1 31.9
19:05 1018 30.06 847 25.01 28.4 83 15 -0.4 31.2
19:10 1018 30.06 847 25.01 28.2 82.7 17 1 33.7
19:15 1018 30.06 847 25.01 28 82.4 15 -0.3 31.5
19:20 1018 30.06 847 25.01 28 82.5 15 -0.5 31.1
19:25 1018 30.06 847 25.01 28 82.3 15 -0.4 31.2
19:30 1018 30.06 847 25.01 27.8 82 17 0.7 33.3
19:35 1018 30.06 847 25.01 27.5 81.5 17 0.5 32.8
19:40 1018 30.06 847 25.01 27.4 81.3 17 0.8 33.5
19:45 1018 30.06 847 25.01 27.2 80.9 17 0.7 33.2
19:50 1018 30.06 847 25.01 27 80.5 18 1 33.9
19:55 1018 30.06 847 25.01 26.8 80.2 18 1 33.7
20:00 1018 30.06 847 25.01 26.7 80 19 1.2 34.2
20:05 1018 30.06 847 25.01 26.5 79.6 19 1.3 34.3
20:10 1018 30.06 847 25.01 26.2 79.2 19 1.2 34.1
20:15 1018 30.06 847 25.01 26.1 78.9 19 1.1 33.9
20:20 1018 30.06 847 25.01 25.8 78.4 20 1.3 34.3
20:25 1018 30.06 847 25.01 25.5 77.9 21 1.7 35.1
20:30 1018 30.06 847 25.01 25.2 77.4 20 1.3 34.3
20:35 1018 30.06 847 25.01 25.2 77.4 20 0.7 33.3
20:40 1018 30.06 847 25.01 25.1 77.1 20 1.1 34
20:45 1018 30.06 847 25.01 24.8 76.7 21 1.5 34.7
20:50 1018 30.06 847 25.01 24.5 76.1 21 1.3 34.3
20:55 1018 30.06 847 25.01 24.5 76 21 1.1 33.9
21:00 1018 30.06 847 25.01 24.7 76.4 21 0.9 33.6
21:05 1018 30.06 847 25.01 24.7 76.4 21 1.1 34
21:10 1018 30.06 847 25.01 24.5 76.1 21 0.8 33.4
21:15 1018 30.06 847 25.01 24.5 76.1 21 0.9 33.6
21:20 1018 30.06 847 25.01 24.4 75.9 21 0.9 33.6
21:25 1018 30.06 847 25.01 24.4 76 20 0.4 32.7
21:30 1018 30.06 847 25.01 24.6 76.2 20 0.7 33.2
21:35 1018 30.06 847 25.01 24.4 75.9 21 0.6 33.1
21:40 1018 30.06 848 25.04 24.4 75.8 20 0.3 32.5
21:45 1018 30.06 848 25.04 24.6 76.3 20 0.3 32.6
21:50 1018 30.06 848 25.04 24.6 76.4 20 0.2 32.3
21:55 1018 30.06 848 25.04 24.9 76.8 19 0.1 32.2
22:00 1018 30.06 848 25.04 24.9 76.7 20 0.6 33
22:05 1018 30.06 848 25.04 24.6 76.2 20 0.4 32.7
22:10 1018 30.06 848 25.04 24.6 76.3 20 0.5 32.9
22:15 1018 30.06 847 25.01 24.6 76.4 20 0.4 32.7
22:20 1018 30.06 847 25.01 24.6 76.2 20 0.5 32.9
22:25 1018 30.06 847 25.01 24.3 75.8 21 0.7 33.2
22:30 1018 30.06 847 25.01 24 75.2 21 0.9 33.6
22:35 1018 30.06 848 25.04 23.5 74.2 22 1 33.8
22:40 1018 30.06 848 25.04 23.3 74 22 0.6 33
22:45 1018 30.06 848 25.04 23.6 74.5 22 0.8 33.5
22:50 1018 30.06 848 25.04 23.3 74 23 1 33.8
22:55 1018 30.06 848 25.04 23.2 73.7 23 1 33.8
23:00 1019 30.09 848 25.04 23 73.5 23 1 33.7
23:05 1018 30.06 848 25.04 22.9 73.2 23 0.9 33.7
23:10 1018 30.06 848 25.04 22.9 73.2 24 1.2 34.2
23:15 1018 30.06 848 25.04 23 73.3 23 1.2 34.1
23:20 1018 30.06 848 25.04 22.9 73.2 24 1.4 34.6
23:25 1018 30.06 848 25.04 22.7 72.9 24 1.3 34.4
23:30 1018 30.06 848 25.04 22.7 72.9 24 1.4 34.4
23:35 1018 30.06 848 25.04 22.6 72.6 25 1.5 34.7
23:40 1018 30.06 848 25.04 22.7 72.8 25 1.7 35
23:45 1018 30.06 848 25.04 22.5 72.4 25 1.7 35.1
23:50 1018 30.06 848 25.04 22.4 72.2 25 1.6 34.9
23:55 1018 30.06 848 25.04 22.3 72.2 26 1.9 35.4
24:00 1018 30.06 848 25.04 22.4 72.3 25 1.8 35.2